createdAt,value
2024-05-09T00:00:47.364Z,99.90
2024-05-09T00:03:16.384Z,99.90
2024-05-09T00:05:45.048Z,99.90
2024-05-09T00:08:13.970Z,99.90
2024-05-09T00:10:42.618Z,99.90
2024-05-09T00:13:11.586Z,99.90
2024-05-09T00:15:40.323Z,99.90
2024-05-09T00:18:09.879Z,99.90
2024-05-09T00:20:40.879Z,99.90
2024-05-09T00:23:11.068Z,99.90
2024-05-09T00:25:40.958Z,99.90
2024-05-09T00:28:09.436Z,99.90
2024-05-09T00:30:38.053Z,99.90
2024-05-09T00:33:08.546Z,99.90
2024-05-09T00:35:38.806Z,99.90
2024-05-09T00:38:07.522Z,99.90
2024-05-09T00:40:40.387Z,99.90
2024-05-09T00:43:15.079Z,99.90
2024-05-09T00:45:44.688Z,99.90
2024-05-09T00:48:16.500Z,99.90
2024-05-09T00:50:47.948Z,99.90
2024-05-09T00:53:17.329Z,99.90
2024-05-09T00:55:46.824Z,99.90
2024-05-09T00:58:18.701Z,99.90
2024-05-09T01:00:48.167Z,99.90
2024-05-09T01:03:17.260Z,99.90
2024-05-09T01:05:46.107Z,99.90
2024-05-09T01:08:14.956Z,99.90
2024-05-09T01:10:45.205Z,99.90
2024-05-09T01:13:15.634Z,99.90
2024-05-09T01:15:44.428Z,99.90
2024-05-09T01:18:14.081Z,99.90
2024-05-09T01:20:44.831Z,99.90
2024-05-09T01:23:16.057Z,99.90
2024-05-09T01:25:46.549Z,99.90
2024-05-09T01:28:15.928Z,1.00
2024-05-09T01:30:44.668Z,1.00
2024-05-09T01:33:13.562Z,1.00
2024-05-09T01:35:43.196Z,99.90
2024-05-09T01:38:12.354Z,99.90
2024-05-09T01:40:40.876Z,99.90
2024-05-09T01:43:10.873Z,99.90
2024-05-09T01:45:41.380Z,99.90
2024-05-09T01:48:11.302Z,99.90
2024-05-09T01:50:42.643Z,99.90
2024-05-09T01:53:14.177Z,99.90
2024-05-09T01:55:43.733Z,1.00
2024-05-09T01:58:12.368Z,1.00
2024-05-09T02:00:42.809Z,1.00
2024-05-09T02:03:16.361Z,99.90
2024-05-09T02:05:48.057Z,99.90
2024-05-09T02:08:19.443Z,1.00
2024-05-09T02:10:50.370Z,1.00
2024-05-09T02:13:19.313Z,1.00
2024-05-09T02:15:47.647Z,1.00
2024-05-09T02:18:16.439Z,99.90
2024-05-09T02:20:44.990Z,99.90
2024-05-09T02:23:13.638Z,99.90
2024-05-09T02:25:45.437Z,1.00
2024-05-09T02:28:13.884Z,1.00
2024-05-09T02:30:42.719Z,1.00
2024-05-09T02:33:13.433Z,1.00
2024-05-09T02:35:44.416Z,1.00
2024-05-09T02:38:19.342Z,1.00
2024-05-09T02:40:47.864Z,1.00
2024-05-09T02:43:16.222Z,1.00
2024-05-09T02:45:44.759Z,1.00
2024-05-09T02:48:14.311Z,1.00
2024-05-09T02:50:43.338Z,1.00
2024-05-09T02:53:15.005Z,1.00
2024-05-09T02:55:43.627Z,1.00
2024-05-09T02:58:12.544Z,1.00
2024-05-09T03:00:42.676Z,1.00
2024-05-09T03:03:14.334Z,99.90
2024-05-09T03:05:45.281Z,99.90
2024-05-09T03:08:14.539Z,99.90
2024-05-09T03:10:43.163Z,1.00
2024-05-09T03:13:14.850Z,1.00
2024-05-09T03:15:45.364Z,1.00
2024-05-09T03:18:14.232Z,99.90
2024-05-09T03:20:42.891Z,99.90
2024-05-09T03:23:11.293Z,99.90
2024-05-09T03:25:40.128Z,1.00
2024-05-09T03:28:08.436Z,1.00
2024-05-09T03:30:41.780Z,1.00
2024-05-09T03:33:13.640Z,1.00
2024-05-09T03:35:46.794Z,1.00
2024-05-09T03:38:16.007Z,1.00
2024-05-09T03:40:49.509Z,1.00
2024-05-09T03:43:20.078Z,1.00
2024-05-09T03:45:50.226Z,1.00
2024-05-09T03:48:19.151Z,1.00
2024-05-09T03:50:48.095Z,1.00
2024-05-09T03:53:16.964Z,1.00
2024-05-09T03:55:48.648Z,1.00
2024-05-09T03:58:17.233Z,1.00
2024-05-09T04:00:45.646Z,1.00
2024-05-09T04:03:14.504Z,1.00
2024-05-09T04:05:44.183Z,1.00
2024-05-09T04:08:15.660Z,1.00
2024-05-09T04:10:44.733Z,1.00
2024-05-09T04:13:13.281Z,1.00
2024-05-09T04:15:41.804Z,1.00
2024-05-09T04:18:10.371Z,1.00
2024-05-09T04:20:40.927Z,1.00
2024-05-09T04:23:14.715Z,1.00
2024-05-09T04:25:44.848Z,1.00
2024-05-09T04:28:14.871Z,1.00
2024-05-09T04:30:43.762Z,1.00
2024-05-09T04:33:14.075Z,21.20
2024-05-09T04:35:46.758Z,22.80
2024-05-09T04:38:15.847Z,57.00
2024-05-09T04:40:44.847Z,88.90
2024-05-09T04:43:17.524Z,67.90
2024-05-09T04:45:46.489Z,99.90
2024-05-09T04:48:15.091Z,99.90
2024-05-09T04:50:43.808Z,99.90
2024-05-09T04:53:17.093Z,99.90
2024-05-09T04:55:46.262Z,99.90
2024-05-09T04:58:14.653Z,99.90
2024-05-09T05:00:44.205Z,99.90
2024-05-09T05:03:15.461Z,99.90
2024-05-09T05:05:46.297Z,99.90
2024-05-09T05:08:17.546Z,99.90
2024-05-09T05:10:47.483Z,99.90
2024-05-09T05:13:18.124Z,99.90
2024-05-09T05:15:48.697Z,99.90
2024-05-09T05:18:18.892Z,99.90
2024-05-09T05:20:50.163Z,99.90
2024-05-09T05:23:23.021Z,99.90
2024-05-09T05:25:53.625Z,99.90
2024-05-09T05:28:23.399Z,99.90
2024-05-09T05:30:51.907Z,99.90
2024-05-09T05:33:20.937Z,99.90
2024-05-09T05:35:49.423Z,99.90
2024-05-09T05:38:23.749Z,99.90
2024-05-09T05:40:54.983Z,99.90
2024-05-09T05:43:23.837Z,99.90
2024-05-09T05:45:52.329Z,99.90
2024-05-09T05:48:20.949Z,99.90
2024-05-09T05:50:49.504Z,1.00
2024-05-09T05:53:18.165Z,99.90
2024-05-09T05:55:46.882Z,99.90
2024-05-09T05:58:15.273Z,99.90
2024-05-09T06:00:43.940Z,99.90
2024-05-09T06:03:13.789Z,99.90
2024-05-09T06:05:42.882Z,1.00
2024-05-09T06:08:11.401Z,1.00
2024-05-09T06:10:41.249Z,1.00
2024-05-09T06:13:11.553Z,1.00
2024-05-09T06:15:41.479Z,1.00
2024-05-09T06:18:11.686Z,1.00
2024-05-09T06:20:43.436Z,1.00
2024-05-09T06:23:13.276Z,1.00
2024-05-09T06:25:42.510Z,1.00
2024-05-09T06:28:11.651Z,1.00
2024-05-09T06:30:41.880Z,1.00
2024-05-09T06:33:14.553Z,1.00
2024-05-09T06:35:45.337Z,99.90
2024-05-09T06:38:13.992Z,99.90
2024-05-09T06:40:43.993Z,1.00
2024-05-09T06:43:15.214Z,1.00
2024-05-09T06:45:45.313Z,1.00
2024-05-09T06:48:14.242Z,1.00
2024-05-09T06:50:42.979Z,1.00
2024-05-09T06:53:12.803Z,1.00
2024-05-09T06:55:41.709Z,1.00
2024-05-09T06:58:11.350Z,1.00
2024-05-09T07:00:41.644Z,1.00
2024-05-09T07:03:14.454Z,1.00
2024-05-09T07:05:47.221Z,1.00
2024-05-09T07:08:17.266Z,1.00
2024-05-09T07:10:46.392Z,1.00
2024-05-09T07:13:16.062Z,1.00
2024-05-09T07:15:44.562Z,99.90
2024-05-09T07:18:16.652Z,1.00
2024-05-09T07:20:47.742Z,1.00
2024-05-09T07:23:16.981Z,1.00
2024-05-09T07:25:46.540Z,1.00
2024-05-09T07:28:17.059Z,1.00
2024-05-09T07:30:46.392Z,99.90
2024-05-09T07:33:19.896Z,99.90
2024-05-09T07:35:49.834Z,99.90
2024-05-09T07:38:18.293Z,99.90
2024-05-09T07:40:47.119Z,99.90
2024-05-09T07:43:16.357Z,99.90
2024-05-09T07:45:52.617Z,99.90
2024-05-09T07:50:00.357Z,99.90
2024-05-09T07:53:50.978Z,99.90
2024-05-09T07:56:23.496Z,99.90
2024-05-09T07:58:54.027Z,99.90
2024-05-09T08:01:23.195Z,99.90
2024-05-09T08:03:51.777Z,99.90
2024-05-09T08:06:20.614Z,99.90
2024-05-09T08:08:49.224Z,99.90
2024-05-09T08:11:17.815Z,99.90
2024-05-09T08:13:46.235Z,99.90
2024-05-09T08:16:15.506Z,99.90
2024-05-09T08:18:43.984Z,99.90
2024-05-09T08:21:12.472Z,99.90
2024-05-09T08:23:40.927Z,99.90
2024-05-09T08:26:09.361Z,63.20
2024-05-09T08:28:37.688Z,1.00
2024-05-09T08:31:07.247Z,1.00
2024-05-09T08:33:36.452Z,1.00
2024-05-09T08:36:05.406Z,1.00
2024-05-09T08:38:33.871Z,1.00
2024-05-09T08:41:04.882Z,1.00
2024-05-09T08:43:33.492Z,1.00
2024-05-09T08:46:04.873Z,1.00
2024-05-09T08:48:35.238Z,1.00
2024-05-09T08:51:03.967Z,1.00
2024-05-09T08:53:32.508Z,1.00
2024-05-09T08:56:03.011Z,1.00
2024-05-09T08:58:32.792Z,1.00
2024-05-09T09:01:03.345Z,1.00
2024-05-09T09:03:34.668Z,1.00
2024-05-09T09:06:06.985Z,1.00
2024-05-09T09:08:38.003Z,1.00
2024-05-09T09:11:06.983Z,1.00
2024-05-09T09:13:35.412Z,1.00
2024-05-09T09:16:04.292Z,1.00
2024-05-09T09:18:33.310Z,1.00
2024-05-09T09:21:02.308Z,1.00
2024-05-09T09:23:31.046Z,1.00
2024-05-09T09:26:02.628Z,99.90
2024-05-09T09:28:31.210Z,99.90
2024-05-09T09:31:03.724Z,99.90
2024-05-09T09:33:32.873Z,99.90
2024-05-09T09:36:06.840Z,99.90
2024-05-09T09:38:41.431Z,99.90
2024-05-09T09:41:10.853Z,99.90
2024-05-09T09:43:41.683Z,99.90
2024-05-09T09:46:12.917Z,99.90
2024-05-09T09:48:42.344Z,99.90
2024-05-09T09:51:11.063Z,99.90
2024-05-09T09:53:40.009Z,99.90
2024-05-09T09:56:10.850Z,99.90
2024-05-09T09:58:40.723Z,99.90
2024-05-09T10:01:09.311Z,99.90
2024-05-09T10:03:38.463Z,99.90
2024-05-09T10:06:08.583Z,99.90
2024-05-09T10:08:38.218Z,99.90
2024-05-09T10:11:07.478Z,99.90
2024-05-09T10:13:37.410Z,99.90
2024-05-09T10:16:09.798Z,99.90
2024-05-09T10:18:40.587Z,99.90
2024-05-09T10:21:22.311Z,99.90
2024-05-09T10:24:04.219Z,99.90
2024-05-09T10:26:36.255Z,99.90
2024-05-09T10:29:24.967Z,99.90
2024-05-09T10:31:53.496Z,99.90
2024-05-09T10:34:24.110Z,98.90
2024-05-09T10:36:56.497Z,93.80
2024-05-09T10:39:26.437Z,99.90
2024-05-09T10:41:54.999Z,99.90
2024-05-09T10:44:23.354Z,99.90
2024-05-09T10:46:52.253Z,99.90
2024-05-09T10:49:20.810Z,99.90
2024-05-09T10:51:49.546Z,95.80
2024-05-09T10:54:18.198Z,99.90
2024-05-09T10:56:46.920Z,96.30
2024-05-09T10:59:15.302Z,99.90
2024-05-09T11:01:44.358Z,99.90
2024-05-09T11:04:14.578Z,99.90
2024-05-09T11:06:43.692Z,81.20
2024-05-09T11:09:12.388Z,78.80
2024-05-09T11:11:40.931Z,99.90
2024-05-09T11:14:15.773Z,95.80
2024-05-09T11:16:44.341Z,94.60
2024-05-09T11:19:16.040Z,96.20
2024-05-09T11:21:44.667Z,94.30
2024-05-09T11:24:13.327Z,73.90
2024-05-09T11:26:41.873Z,99.90
2024-05-09T11:29:10.227Z,69.80
2024-05-09T11:31:48.741Z,99.90
2024-05-09T11:34:17.330Z,99.90
2024-05-09T11:36:45.820Z,98.70
2024-05-09T11:39:14.549Z,61.80
2024-05-09T11:41:43.086Z,55.10
2024-05-09T11:44:11.435Z,82.60
2024-05-09T11:46:40.290Z,99.90
2024-05-09T11:49:10.271Z,76.40
2024-05-09T11:51:38.957Z,93.70
2024-05-09T11:54:07.490Z,99.90
2024-05-09T11:56:36.206Z,99.90
2024-05-09T11:59:04.857Z,99.90
2024-05-09T12:01:33.767Z,96.60
2024-05-09T12:04:02.458Z,53.00
2024-05-09T12:06:31.541Z,70.60
2024-05-09T12:09:00.132Z,97.80
2024-05-09T12:11:28.631Z,94.00
2024-05-09T12:13:57.039Z,92.90
2024-05-09T12:16:26.109Z,82.80
2024-05-09T12:18:54.897Z,28.00
2024-05-09T12:21:23.468Z,76.20
2024-05-09T12:23:52.348Z,35.70
2024-05-09T12:26:20.745Z,96.80
2024-05-09T12:28:49.290Z,99.90
2024-05-09T12:31:17.814Z,99.90
2024-05-09T12:33:47.251Z,99.90
2024-05-09T12:36:15.647Z,99.90
2024-05-09T12:38:44.199Z,99.90
2024-05-09T12:41:12.577Z,99.90
2024-05-09T12:43:41.094Z,99.90
2024-05-09T12:46:09.664Z,99.90
2024-05-09T12:48:38.395Z,99.90
2024-05-09T12:51:06.996Z,99.90
2024-05-09T12:53:37.348Z,99.90
2024-05-09T12:56:08.751Z,99.90
2024-05-09T12:58:38.305Z,99.90
2024-05-09T13:01:07.054Z,99.90
2024-05-09T13:03:35.623Z,99.90
2024-05-09T13:06:04.369Z,99.90
2024-05-09T13:08:32.850Z,99.90
2024-05-09T13:11:04.594Z,99.90
2024-05-09T13:13:33.223Z,99.90
2024-05-09T13:16:01.759Z,99.90
2024-05-09T13:18:30.557Z,99.90
2024-05-09T13:20:59.188Z,99.90
2024-05-09T13:23:27.516Z,99.90
2024-05-09T13:25:56.507Z,99.90
2024-05-09T13:28:25.214Z,99.90
2024-05-09T13:30:54.245Z,96.90
2024-05-09T13:33:22.933Z,99.90
2024-05-09T13:35:51.769Z,93.80
2024-05-09T13:38:20.930Z,99.90
2024-05-09T13:40:50.624Z,99.90
2024-05-09T13:43:20.004Z,99.90
2024-05-09T13:45:48.772Z,93.00
2024-05-09T13:48:17.488Z,99.90
2024-05-09T13:50:46.246Z,79.00
2024-05-09T13:53:14.731Z,99.90
2024-05-09T13:55:43.298Z,99.90
2024-05-09T13:58:12.152Z,96.90
2024-05-09T14:00:46.423Z,99.90
2024-05-09T14:03:19.645Z,99.90
2024-05-09T14:05:50.867Z,99.90
2024-05-09T14:08:20.856Z,99.90
2024-05-09T14:10:52.267Z,99.90
2024-05-09T14:13:21.371Z,99.90
2024-05-09T14:15:50.448Z,99.90
2024-05-09T14:18:19.526Z,99.90
2024-05-09T14:20:48.343Z,99.90
2024-05-09T14:23:18.608Z,99.10
2024-05-09T14:25:50.109Z,93.90
2024-05-09T14:28:22.878Z,99.90
2024-05-09T14:30:52.172Z,99.90
2024-05-09T14:33:20.839Z,99.90
2024-05-09T14:35:49.680Z,99.90
2024-05-09T14:38:18.227Z,99.90
2024-05-09T14:40:47.158Z,99.90
2024-05-09T14:43:16.256Z,99.90
2024-05-09T14:45:45.828Z,99.90
2024-05-09T14:48:16.197Z,99.90
2024-05-09T14:50:44.764Z,1.80
2024-05-09T14:53:14.111Z,96.50
2024-05-09T14:55:43.879Z,99.90
2024-05-09T14:58:13.567Z,99.90
2024-05-09T15:00:46.827Z,99.90
2024-05-09T15:03:20.979Z,99.90
2024-05-09T15:05:51.389Z,99.90
2024-05-09T15:08:20.809Z,1.00
2024-05-09T15:10:50.296Z,74.30
2024-05-09T15:13:20.577Z,99.90
2024-05-09T15:15:49.548Z,99.90
2024-05-09T15:18:18.752Z,99.90
2024-05-09T15:20:47.537Z,99.90
2024-05-09T15:23:16.134Z,99.90
2024-05-09T15:25:44.909Z,99.90
2024-05-09T15:28:13.464Z,99.90
2024-05-09T15:30:45.493Z,99.90
2024-05-09T15:33:15.928Z,99.90
2024-05-09T15:35:44.333Z,99.90
2024-05-09T15:38:13.439Z,99.90
2024-05-09T15:40:41.988Z,99.90
2024-05-09T15:43:11.676Z,99.90
2024-05-09T15:45:41.704Z,99.90
2024-05-09T15:48:11.448Z,99.90
2024-05-09T15:50:42.134Z,99.90
2024-05-09T15:53:13.067Z,99.90
2024-05-09T15:55:43.058Z,29.00
2024-05-09T15:58:12.587Z,99.90
2024-05-09T16:00:44.343Z,99.90
2024-05-09T16:03:15.184Z,99.90
2024-05-09T16:05:45.267Z,98.80
2024-05-09T16:08:15.581Z,99.90
2024-05-09T16:10:45.618Z,99.90
2024-05-09T16:13:16.298Z,99.90
2024-05-09T16:15:45.363Z,99.90
2024-05-09T16:18:14.117Z,99.90
2024-05-09T16:20:44.753Z,99.90
2024-05-09T16:23:14.800Z,99.90
2024-05-09T16:25:43.624Z,99.90
2024-05-09T16:28:12.759Z,99.90
2024-05-09T16:30:41.860Z,99.90
2024-05-09T16:33:10.612Z,99.90
2024-05-09T16:35:39.496Z,99.90
2024-05-09T16:38:08.464Z,99.90
2024-05-09T16:40:40.327Z,99.90
2024-05-09T16:43:11.436Z,99.90
2024-05-09T16:45:44.856Z,99.90
2024-05-09T16:48:14.115Z,99.90
2024-05-09T16:50:43.209Z,99.90
2024-05-09T16:53:11.636Z,99.90
2024-05-09T16:55:40.241Z,99.90
2024-05-09T16:58:08.992Z,99.90
2024-05-09T17:00:42.096Z,99.90
2024-05-09T17:03:15.588Z,99.90
2024-05-09T17:05:45.949Z,99.90
2024-05-09T17:08:16.802Z,99.90
2024-05-09T17:10:49.836Z,99.90
2024-05-09T17:13:21.533Z,99.90
2024-05-09T17:15:50.880Z,99.90
2024-05-09T17:18:19.443Z,99.90
2024-05-09T17:20:48.782Z,99.90
2024-05-09T17:23:17.447Z,99.90
2024-05-09T17:25:46.026Z,99.90
2024-05-09T17:28:14.556Z,99.90
2024-05-09T17:30:43.260Z,99.90
2024-05-09T17:33:13.110Z,99.90
2024-05-09T17:35:42.345Z,99.90
2024-05-09T17:38:10.965Z,99.90
2024-05-09T17:40:40.099Z,99.90
2024-05-09T17:43:11.075Z,99.90
2024-05-09T17:45:41.353Z,99.90
2024-05-09T17:48:11.674Z,99.90
2024-05-09T17:50:41.908Z,99.90
2024-05-09T17:53:11.333Z,99.90
2024-05-09T17:55:40.893Z,99.90
2024-05-09T17:58:10.313Z,99.90
2024-05-09T18:00:41.718Z,99.90
2024-05-09T18:03:12.453Z,99.90
2024-05-09T18:05:43.641Z,99.90
2024-05-09T18:08:13.955Z,99.90
2024-05-09T18:10:42.929Z,99.90
2024-05-09T18:13:12.592Z,99.90
2024-05-09T18:15:42.165Z,99.90
2024-05-09T18:18:11.883Z,99.90
2024-05-09T18:20:44.561Z,99.90
2024-05-09T18:23:17.263Z,99.90
2024-05-09T18:25:47.444Z,99.90
2024-05-09T18:28:17.567Z,99.90
2024-05-09T18:30:46.588Z,99.90
2024-05-09T18:33:15.313Z,99.90
2024-05-09T18:35:45.364Z,99.90
2024-05-09T18:38:14.153Z,99.90
2024-05-09T18:40:44.900Z,99.90
2024-05-09T18:43:16.120Z,99.90
2024-05-09T18:45:45.978Z,99.90
2024-05-09T18:48:14.852Z,99.90
2024-05-09T18:50:43.356Z,99.90
2024-05-09T18:53:13.426Z,99.90
2024-05-09T18:55:43.194Z,99.90
2024-05-09T18:58:11.752Z,99.90
2024-05-09T19:00:42.933Z,99.90
2024-05-09T19:03:15.099Z,99.90
2024-05-09T19:05:45.946Z,99.90
2024-05-09T19:08:18.052Z,99.90
2024-05-09T19:10:47.220Z,99.90
2024-05-09T19:13:15.926Z,99.90
2024-05-09T19:15:44.904Z,99.90
2024-05-09T19:18:14.905Z,99.90
2024-05-09T19:20:46.792Z,99.90
2024-05-09T19:23:15.396Z,99.90
2024-05-09T19:25:43.959Z,99.90
2024-05-09T19:28:12.541Z,99.90
2024-05-09T19:30:42.670Z,99.90
2024-05-09T19:33:13.575Z,99.90
2024-05-09T19:35:43.823Z,99.90
2024-05-09T19:38:13.039Z,99.90
2024-05-09T19:40:41.591Z,99.90
2024-05-09T19:43:10.281Z,99.90
2024-05-09T19:45:39.064Z,99.90
2024-05-09T19:48:08.235Z,99.90
2024-05-09T19:50:42.274Z,99.90
2024-05-09T19:53:15.685Z,99.90
2024-05-09T19:55:44.672Z,99.90
2024-05-09T19:58:13.436Z,99.90
2024-05-09T20:00:43.760Z,99.90
2024-05-09T20:03:15.254Z,99.90
2024-05-09T20:05:46.904Z,99.90
2024-05-09T20:08:16.073Z,99.90
2024-05-09T20:10:44.652Z,99.90
2024-05-09T20:13:13.907Z,99.90
2024-05-09T20:15:42.496Z,99.90
2024-05-09T20:18:11.869Z,1.00
2024-05-09T20:20:43.010Z,1.00
2024-05-09T20:23:13.857Z,1.00
2024-05-09T20:25:43.036Z,99.90
2024-05-09T20:28:11.685Z,99.90
2024-05-09T20:30:40.456Z,99.90
2024-05-09T20:33:10.036Z,99.90
2024-05-09T20:35:38.840Z,99.90
2024-05-09T20:38:07.539Z,99.90
2024-05-09T20:40:38.726Z,99.90
2024-05-09T20:43:11.796Z,99.90
2024-05-09T20:45:41.110Z,99.90
2024-05-09T20:48:10.375Z,99.90
2024-05-09T20:50:41.518Z,99.90
2024-05-09T20:53:13.390Z,99.90
2024-05-09T20:55:43.041Z,99.90
2024-05-09T20:58:12.714Z,99.90
2024-05-09T21:00:44.407Z,99.90
2024-05-09T21:03:16.677Z,99.90
2024-05-09T21:05:46.393Z,99.90
2024-05-09T21:08:15.730Z,99.90
2024-05-09T21:10:44.474Z,1.00
2024-05-09T21:13:13.190Z,1.00
2024-05-09T21:15:41.922Z,1.00
2024-05-09T21:18:10.527Z,1.00
2024-05-09T21:20:39.085Z,1.00
2024-05-09T21:23:07.526Z,1.00
2024-05-09T21:25:36.629Z,1.00
2024-05-09T21:28:06.023Z,1.00
2024-05-09T21:30:41.346Z,1.00
2024-05-09T21:33:14.112Z,1.00
2024-05-09T21:35:44.945Z,1.00
2024-05-09T21:38:14.936Z,1.00
2024-05-09T21:40:44.597Z,1.00
2024-05-09T21:43:13.738Z,1.00
2024-05-09T21:45:42.262Z,1.00
2024-05-09T21:48:13.662Z,1.00
2024-05-09T21:50:42.815Z,1.00
2024-05-09T21:53:12.892Z,1.00
2024-05-09T21:55:45.449Z,1.00
2024-05-09T21:58:16.644Z,1.00
2024-05-09T22:00:45.597Z,1.00
2024-05-09T22:03:15.398Z,1.00
2024-05-09T22:05:44.965Z,1.00
2024-05-09T22:08:14.292Z,1.00
2024-05-09T22:10:43.204Z,1.00
2024-05-09T22:13:12.688Z,1.00
2024-05-09T22:15:41.393Z,1.00
2024-05-09T22:18:11.535Z,1.00
2024-05-09T22:20:41.154Z,1.00
2024-05-09T22:23:09.859Z,1.00
2024-05-09T22:25:38.985Z,1.00
2024-05-09T22:28:11.503Z,1.00
2024-05-09T22:30:40.651Z,1.00
2024-05-09T22:33:10.747Z,1.00
2024-05-09T22:35:41.491Z,1.00
2024-05-09T22:38:10.085Z,1.00
2024-05-09T22:40:46.767Z,1.00
2024-05-09T22:43:20.784Z,1.00
2024-05-09T22:45:51.240Z,1.00
2024-05-09T22:48:20.224Z,1.00
2024-05-09T22:50:49.122Z,1.00
2024-05-09T22:53:18.025Z,1.00
2024-05-09T22:55:46.569Z,1.00
2024-05-09T22:58:15.166Z,1.00
2024-05-09T23:00:44.093Z,1.00
2024-05-09T23:03:15.434Z,1.00
2024-05-09T23:05:44.344Z,1.00
2024-05-09T23:08:13.336Z,1.00
2024-05-09T23:10:41.955Z,1.00
2024-05-09T23:13:10.796Z,1.00
2024-05-09T23:15:39.564Z,1.00
2024-05-09T23:18:08.937Z,1.00
2024-05-09T23:20:39.692Z,1.00
2024-05-09T23:23:11.325Z,1.00
2024-05-09T23:25:42.165Z,1.00
2024-05-09T23:28:12.413Z,1.00
2024-05-09T23:30:42.072Z,1.00
2024-05-09T23:33:13.909Z,1.00
2024-05-09T23:35:44.441Z,1.00
2024-05-09T23:38:14.119Z,1.00
2024-05-09T23:40:43.403Z,1.00
2024-05-09T23:43:13.001Z,1.00
2024-05-09T23:45:43.038Z,1.00
2024-05-09T23:48:12.196Z,1.00
2024-05-09T23:50:41.329Z,1.00
2024-05-09T23:53:19.799Z,1.00
2024-05-09T23:55:48.408Z,1.00
2024-05-09T23:58:17.057Z,1.00
